首页
METAR-TAF:

METAR-TAF

机场 :

Muscle Shoals, 阿拉巴马州, 美国

纬度: 34-44-38N, 经度: 087-35-58W, 海拔: 167米

当前天气观测

该预报发布于36分钟前的02:53 UTC
风速5节,风向东北
温度 8°C
湿度 57%
气压 1020 hPa
能見度: 16.1公里
天空无云

METAR: KMSL 170253Z AUTO 04005KT 10SM CLR 08/00 A3013 RMK AO2 SLP203 T00830000 51003 $

时间: 21:29 (03:29 UTC)

预报

该预报发布于4小时和4分钟前的23:25 UTC
预报有效从17日的 00点(UTC)到 17日的 24点(UTC)
风速4节,风向多变
能見度: 10公里
天空无云
从 17日的 1800点(UTC)
风速5节,风向西转西南
能見度: 10公里
天空无云

TAF: KMSL 162325Z 1700/1724 VRB04KT P6SM SKC FM171800 24005KT P6SM SKC

超过4000个机场的气象观测和天气预报(METAR&TAF报告)。

可查询的气象台以黄色和红色小点在地图上表示。

将鼠标移到小点上方,可查看气象台名称。

然后点击查看天气观测和预报。

如需切换地图:点击带黑十字的绿色按钮放大地图;点击带横线的绿色按钮缩小地图;或者点击绿色箭头查看邻近地区的地图。


METAR-TAF: